Terminal Aerodrome Forecast
Issued by NWS Charleston, SC

Home | Current Version | Previous Version | Text Only | Print | Product List | Glossary On
Versions: 1 2 3 4 5 6 7 8 9 10 11 12
618
FTUS42 KCHS 282057 AAA
TAFSAV
TAF AMD
KSAV 282057Z 2821/2918 15011KT P6SM SCT060
     FM290200 15006KT P6SM FEW030
      TEMPO 2909/2912 15004KT BKN008
     FM291300 17007KT P6SM BKN250=

USA.gov is the U.S. government's official web portal to all federal, state and local government web resources and services.